<?xml version="1.0" encoding="UTF-8" standalone="no" ?>
<gpx xmlns="http://www.topografix.com/GPX/1/1" xmlns:xsi="http://www.w3.org/2001/XMLSchema-instance" xsi:schemaLocation="http://www.topografix.com/GPX/1/1 http://www.topografix.com/GPX/1/1/gpx.xsd" version="1.1" creator="VisuGPX - https://www.visugpx.com">
  <metadata>
    <name>Auvergne Parcours N°2</name>
    <desc><![CDATA[Auvergne Juin 2017- Parcours N°2]]></desc>
  </metadata>
  <trk>
    <name><![CDATA[Rencontre Sobre jour 2]]></name>
    <trkseg>
      <trkpt lat="45.69416" lon="2.99609">
        <ele>880.40002441406</ele>
        <time>2013-06-16T07:12:26Z</time>
      </trkpt>
      <trkpt lat="45.69418" lon="2.99611">
        <ele>883.40002441406</ele>
        <time>2013-06-16T07:12:33Z</time>
      </trkpt>
      <trkpt lat="45.69421" lon="2.9961">
        <ele>883.40002441406</ele>
        <time>2013-06-16T07:12:35Z</time>
      </trkpt>
      <trkpt lat="45.69427" lon="2.99604">
        <ele>883.40002441406</ele>
        <time>2013-06-16T07:12:40Z</time>
      </trkpt>
      <trkpt lat="45.69427" lon="2.99596">
        <ele>883.40002441406</ele>
        <time>2013-06-16T07:13:41Z</time>
      </trkpt>
      <trkpt lat="45.69404" lon="2.99572">
        <ele>883.40002441406</ele>
        <time>2013-06-16T07:16:02Z</time>
      </trkpt>
      <trkpt lat="45.69411" lon="2.99542">
        <ele>882.20001220703</ele>
        <time>2013-06-16T07:16:13Z</time>
      </trkpt>
      <trkpt lat="45.69415" lon="2.995">
        <ele>882.20001220703</ele>
        <time>2013-06-16T07:16:24Z</time>
      </trkpt>
      <trkpt lat="45.69422" lon="2.9945">
        <ele>882.59997558594</ele>
        <time>2013-06-16T07:16:36Z</time>
      </trkpt>
      <trkpt lat="45.69438" lon="2.99424">
        <ele>884.20001220703</ele>
        <time>2013-06-16T07:16:45Z</time>
      </trkpt>
      <trkpt lat="45.69479" lon="2.9939">
        <ele>886.20001220703</ele>
        <time>2013-06-16T07:17:01Z</time>
      </trkpt>
      <trkpt lat="45.69509" lon="2.99393">
        <ele>885.40002441406</ele>
        <time>2013-06-16T07:17:10Z</time>
      </trkpt>
      <trkpt lat="45.69552" lon="2.99374">
        <ele>879</ele>
        <time>2013-06-16T07:17:19Z</time>
      </trkpt>
      <trkpt lat="45.69632" lon="2.9938">
        <ele>864.59997558594</ele>
        <time>2013-06-16T07:17:37Z</time>
      </trkpt>
      <trkpt lat="45.69638" lon="2.99422">
        <ele>860.20001220703</ele>
        <time>2013-06-16T07:17:43Z</time>
      </trkpt>
      <trkpt lat="45.69641" lon="2.99449">
        <ele>858.40002441406</ele>
        <time>2013-06-16T07:17:46Z</time>
      </trkpt>
      <trkpt lat="45.69651" lon="2.99477">
        <ele>857.40002441406</ele>
        <time>2013-06-16T07:17:49Z</time>
      </trkpt>
      <trkpt lat="45.69709" lon="2.99522">
        <ele>854.40002441406</ele>
        <time>2013-06-16T07:17:58Z</time>
      </trkpt>
      <trkpt lat="45.69753" lon="2.99549">
        <ele>853</ele>
        <time>2013-06-16T07:18:04Z</time>
      </trkpt>
      <trkpt lat="45.69769" lon="2.99561">
        <ele>852</ele>
        <time>2013-06-16T07:18:06Z</time>
      </trkpt>
      <trkpt lat="45.69814" lon="2.99625">
        <ele>850.20001220703</ele>
        <time>2013-06-16T07:18:13Z</time>
      </trkpt>
      <trkpt lat="45.69843" lon="2.99718">
        <ele>847.79998779297</ele>
        <time>2013-06-16T07:18:21Z</time>
      </trkpt>
      <trkpt lat="45.69854" lon="2.99863">
        <ele>845</ele>
        <time>2013-06-16T07:18:33Z</time>
      </trkpt>
      <trkpt lat="45.69857" lon="2.99874">
        <ele>844.59997558594</ele>
        <time>2013-06-16T07:18:34Z</time>
      </trkpt>
      <trkpt lat="45.69892" lon="2.99944">
        <ele>842.40002441406</ele>
        <time>2013-06-16T07:18:41Z</time>
      </trkpt>
      <trkpt lat="45.699" lon="2.99959">
        <ele>841.59997558594</ele>
        <time>2013-06-16T07:18:43Z</time>
      </trkpt>
      <trkpt lat="45.69915" lon="2.99987">
        <ele>840.79998779297</ele>
        <time>2013-06-16T07:18:47Z</time>
      </trkpt>
      <trkpt lat="45.69923" lon="2.99995">
        <ele>840.40002441406</ele>
        <time>2013-06-16T07:18:49Z</time>
      </trkpt>
      <trkpt lat="45.70014" lon="3.00037">
        <ele>831.79998779297</ele>
        <time>2013-06-16T07:19:03Z</time>
      </trkpt>
      <trkpt lat="45.70052" lon="3.00117">
        <ele>829</ele>
        <time>2013-06-16T07:19:12Z</time>
      </trkpt>
      <trkpt lat="45.70071" lon="3.00146">
        <ele>826.40002441406</ele>
        <time>2013-06-16T07:19:15Z</time>
      </trkpt>
      <trkpt lat="45.70172" lon="3.0025">
        <ele>819.59997558594</ele>
        <time>2013-06-16T07:19:28Z</time>
      </trkpt>
      <trkpt lat="45.7025" lon="3.00282">
        <ele>817.40002441406</ele>
        <time>2013-06-16T07:19:39Z</time>
      </trkpt>
      <trkpt lat="45.70315" lon="3.0028">
        <ele>817.40002441406</ele>
        <time>2013-06-16T07:19:49Z</time>
      </trkpt>
      <trkpt lat="45.7032" lon="3.00284">
        <ele>817</ele>
        <time>2013-06-16T07:19:50Z</time>
      </trkpt>
      <trkpt lat="45.70355" lon="3.00354">
        <ele>815.40002441406</ele>
        <time>2013-06-16T07:19:59Z</time>
      </trkpt>
      <trkpt lat="45.7042" lon="3.00523">
        <ele>810.59997558594</ele>
        <time>2013-06-16T07:20:17Z</time>
      </trkpt>
      <trkpt lat="45.70616" lon="3.00411">
        <ele>808.59997558594</ele>
        <time>2013-06-16T07:20:57Z</time>
      </trkpt>
      <trkpt lat="45.70674" lon="3.00326">
        <ele>809</ele>
        <time>2013-06-16T07:21:15Z</time>
      </trkpt>
      <trkpt lat="45.70677" lon="3.00318">
        <ele>810.40002441406</ele>
        <time>2013-06-16T07:21:17Z</time>
      </trkpt>
      <trkpt lat="45.70655" lon="3.00211">
        <ele>821.40002441406</ele>
        <time>2013-06-16T07:21:50Z</time>
      </trkpt>
      <trkpt lat="45.70634" lon="2.99944">
        <ele>827.59997558594</ele>
        <time>2013-06-16T07:22:46Z</time>
      </trkpt>
      <trkpt lat="45.7065" lon="2.99898">
        <ele>829.79998779297</ele>
        <time>2013-06-16T07:22:58Z</time>
      </trkpt>
      <trkpt lat="45.70738" lon="2.99773">
        <ele>834.79998779297</ele>
        <time>2013-06-16T07:23:35Z</time>
      </trkpt>
      <trkpt lat="45.70801" lon="2.99677">
        <ele>840</ele>
        <time>2013-06-16T07:24:08Z</time>
      </trkpt>
      <trkpt lat="45.70863" lon="2.99567">
        <ele>840.79998779297</ele>
        <time>2013-06-16T07:24:39Z</time>
      </trkpt>
      <trkpt lat="45.70873" lon="2.99552">
        <ele>842</ele>
        <time>2013-06-16T07:24:43Z</time>
      </trkpt>
      <trkpt lat="45.70924" lon="2.99531">
        <ele>844.40002441406</ele>
        <time>2013-06-16T07:25:03Z</time>
      </trkpt>
      <trkpt lat="45.70942" lon="2.99461">
        <ele>848.79998779297</ele>
        <time>2013-06-16T07:25:24Z</time>
      </trkpt>
      <trkpt lat="45.70944" lon="2.99454">
        <ele>850.40002441406</ele>
        <time>2013-06-16T07:25:27Z</time>
      </trkpt>
      <trkpt lat="45.71075" lon="2.9923">
        <ele>856.79998779297</ele>
        <time>2013-06-16T07:26:38Z</time>
      </trkpt>
      <trkpt lat="45.71114" lon="2.99177">
        <ele>856.79998779297</ele>
        <time>2013-06-16T07:26:50Z</time>
      </trkpt>
      <trkpt lat="45.71133" lon="2.99129">
        <ele>854.59997558594</ele>
        <time>2013-06-16T07:27:01Z</time>
      </trkpt>
      <trkpt lat="45.71179" lon="2.99033">
        <ele>854.59997558594</ele>
        <time>2013-06-16T07:27:18Z</time>
      </trkpt>
      <trkpt lat="45.71221" lon="2.99004">
        <ele>854.59997558594</ele>
        <time>2013-06-16T07:27:29Z</time>
      </trkpt>
      <trkpt lat="45.71238" lon="2.9899">
        <ele>855.59997558594</ele>
        <time>2013-06-16T07:27:35Z</time>
      </trkpt>
      <trkpt lat="45.71252" lon="2.98962">
        <ele>857.59997558594</ele>
        <time>2013-06-16T07:27:43Z</time>
      </trkpt>
      <trkpt lat="45.71255" lon="2.98959">
        <ele>858.40002441406</ele>
        <time>2013-06-16T07:27:45Z</time>
      </trkpt>
      <trkpt lat="45.7127" lon="2.98833">
        <ele>867.79998779297</ele>
        <time>2013-06-16T07:28:21Z</time>
      </trkpt>
      <trkpt lat="45.713" lon="2.98786">
        <ele>873</ele>
        <time>2013-06-16T07:28:42Z</time>
      </trkpt>
      <trkpt lat="45.71319" lon="2.9878">
        <ele>873</ele>
        <time>2013-06-16T07:28:49Z</time>
      </trkpt>
      <trkpt lat="45.71325" lon="2.98761">
        <ele>873.40002441406</ele>
        <time>2013-06-16T07:28:55Z</time>
      </trkpt>
      <trkpt lat="45.71329" lon="2.9875">
        <ele>875.20001220703</ele>
        <time>2013-06-16T07:28:59Z</time>
      </trkpt>
      <trkpt lat="45.7135" lon="2.98697">
        <ele>877.20001220703</ele>
        <time>2013-06-16T07:30:48Z</time>
      </trkpt>
      <trkpt lat="45.7141" lon="2.98594">
        <ele>877.20001220703</ele>
        <time>2013-06-16T07:31:16Z</time>
      </trkpt>
      <trkpt lat="45.71459" lon="2.98531">
        <ele>879.40002441406</ele>
        <time>2013-06-16T07:31:32Z</time>
      </trkpt>
      <trkpt lat="45.71468" lon="2.98515">
        <ele>879.40002441406</ele>
        <time>2013-06-16T07:31:36Z</time>
      </trkpt>
      <trkpt lat="45.71522" lon="2.98364">
        <ele>879.40002441406</ele>
        <time>2013-06-16T07:32:09Z</time>
      </trkpt>
      <trkpt lat="45.71537" lon="2.98346">
        <ele>881.40002441406</ele>
        <time>2013-06-16T07:32:15Z</time>
      </trkpt>
      <trkpt lat="45.71595" lon="2.98308">
        <ele>881.40002441406</ele>
        <time>2013-06-16T07:32:32Z</time>
      </trkpt>
      <trkpt lat="45.71667" lon="2.98198">
        <ele>885.59997558594</ele>
        <time>2013-06-16T07:33:03Z</time>
      </trkpt>
      <trkpt lat="45.71685" lon="2.98164">
        <ele>885.59997558594</ele>
        <time>2013-06-16T07:33:14Z</time>
      </trkpt>
      <trkpt lat="45.71711" lon="2.98149">
        <ele>887.59997558594</ele>
        <time>2013-06-16T07:33:22Z</time>
      </trkpt>
      <trkpt lat="45.71726" lon="2.98123">
        <ele>887.59997558594</ele>
        <time>2013-06-16T07:33:31Z</time>
      </trkpt>
      <trkpt lat="45.71729" lon="2.97877">
        <ele>894</ele>
        <time>2013-06-16T07:34:29Z</time>
      </trkpt>
      <trkpt lat="45.7175" lon="2.97672">
        <ele>896.20001220703</ele>
        <time>2013-06-16T07:35:17Z</time>
      </trkpt>
      <trkpt lat="45.71754" lon="2.97589">
        <ele>898.20001220703</ele>
        <time>2013-06-16T07:35:40Z</time>
      </trkpt>
      <trkpt lat="45.7174" lon="2.97506">
        <ele>900.20001220703</ele>
        <time>2013-06-16T07:36:02Z</time>
      </trkpt>
      <trkpt lat="45.71697" lon="2.97375">
        <ele>906.59997558594</ele>
        <time>2013-06-16T07:36:38Z</time>
      </trkpt>
      <trkpt lat="45.71689" lon="2.97352">
        <ele>907</ele>
        <time>2013-06-16T07:36:46Z</time>
      </trkpt>
      <trkpt lat="45.71673" lon="2.97297">
        <ele>910.79998779297</ele>
        <time>2013-06-16T07:37:02Z</time>
      </trkpt>
      <trkpt lat="45.71621" lon="2.9716">
        <ele>913</ele>
        <time>2013-06-16T07:37:36Z</time>
      </trkpt>
      <trkpt lat="45.71586" lon="2.97038">
        <ele>915</ele>
        <time>2013-06-16T07:38:05Z</time>
      </trkpt>
      <trkpt lat="45.71659" lon="2.97011">
        <ele>915</ele>
        <time>2013-06-16T07:38:37Z</time>
      </trkpt>
      <trkpt lat="45.71774" lon="2.97013">
        <ele>915</ele>
        <time>2013-06-16T07:39:02Z</time>
      </trkpt>
      <trkpt lat="45.72324" lon="2.97175">
        <ele>933.79998779297</ele>
        <time>2013-06-16T07:41:31Z</time>
      </trkpt>
      <trkpt lat="45.72412" lon="2.97212">
        <ele>935</ele>
        <time>2013-06-16T07:42:31Z</time>
      </trkpt>
      <trkpt lat="45.72518" lon="2.97202">
        <ele>938</ele>
        <time>2013-06-16T07:44:10Z</time>
      </trkpt>
      <trkpt lat="45.72585" lon="2.97168">
        <ele>939.59997558594</ele>
        <time>2013-06-16T07:44:29Z</time>
      </trkpt>
      <trkpt lat="45.72642" lon="2.97172">
        <ele>942.20001220703</ele>
        <time>2013-06-16T07:44:44Z</time>
      </trkpt>
      <trkpt lat="45.72797" lon="2.97085">
        <ele>944.40002441406</ele>
        <time>2013-06-16T07:45:28Z</time>
      </trkpt>
      <trkpt lat="45.72932" lon="2.97093">
        <ele>946.59997558594</ele>
        <time>2013-06-16T07:46:01Z</time>
      </trkpt>
      <trkpt lat="45.73011" lon="2.97026">
        <ele>946.59997558594</ele>
        <time>2013-06-16T07:46:23Z</time>
      </trkpt>
      <trkpt lat="45.73102" lon="2.97053">
        <ele>946.59997558594</ele>
        <time>2013-06-16T07:46:44Z</time>
      </trkpt>
      <trkpt lat="45.73145" lon="2.97092">
        <ele>946.59997558594</ele>
        <time>2013-06-16T07:46:54Z</time>
      </trkpt>
      <trkpt lat="45.73154" lon="2.97098">
        <ele>947.40002441406</ele>
        <time>2013-06-16T07:46:56Z</time>
      </trkpt>
      <trkpt lat="45.73164" lon="2.97105">
        <ele>948.20001220703</ele>
        <time>2013-06-16T07:46:58Z</time>
      </trkpt>
      <trkpt lat="45.73185" lon="2.97113">
        <ele>948.59997558594</ele>
        <time>2013-06-16T07:47:05Z</time>
      </trkpt>
      <trkpt lat="45.73234" lon="2.97088">
        <ele>948.59997558594</ele>
        <time>2013-06-16T07:48:03Z</time>
      </trkpt>
      <trkpt lat="45.73285" lon="2.9704">
        <ele>950.59997558594</ele>
        <time>2013-06-16T07:48:21Z</time>
      </trkpt>
      <trkpt lat="45.7323" lon="2.97086">
        <ele>950.59997558594</ele>
        <time>2013-06-16T07:48:38Z</time>
      </trkpt>
      <trkpt lat="45.73226" lon="2.97088">
        <ele>950.59997558594</ele>
        <time>2013-06-16T07:48:43Z</time>
      </trkpt>
      <trkpt lat="45.73097" lon="2.96862">
        <ele>952.79998779297</ele>
        <time>2013-06-16T07:49:44Z</time>
      </trkpt>
      <trkpt lat="45.73085" lon="2.96821">
        <ele>952.79998779297</ele>
        <time>2013-06-16T07:49:51Z</time>
      </trkpt>
      <trkpt lat="45.73108" lon="2.96412">
        <ele>967.40002441406</ele>
        <time>2013-06-16T07:53:16Z</time>
      </trkpt>
      <trkpt lat="45.73135" lon="2.96174">
        <ele>978.20001220703</ele>
        <time>2013-06-16T07:54:24Z</time>
      </trkpt>
      <trkpt lat="45.73143" lon="2.96173">
        <ele>979.79998779297</ele>
        <time>2013-06-16T07:54:28Z</time>
      </trkpt>
      <trkpt lat="45.73313" lon="2.96283">
        <ele>973.59997558594</ele>
        <time>2013-06-16T07:54:58Z</time>
      </trkpt>
      <trkpt lat="45.73518" lon="2.96367">
        <ele>969.20001220703</ele>
        <time>2013-06-16T07:55:27Z</time>
      </trkpt>
      <trkpt lat="45.73685" lon="2.96471">
        <ele>967.20001220703</ele>
        <time>2013-06-16T07:55:56Z</time>
      </trkpt>
      <trkpt lat="45.73712" lon="2.9649">
        <ele>965</ele>
        <time>2013-06-16T07:56:01Z</time>
      </trkpt>
      <trkpt lat="45.73819" lon="2.96572">
        <ele>963</ele>
        <time>2013-06-16T07:56:25Z</time>
      </trkpt>
      <trkpt lat="45.73933" lon="2.96589">
        <ele>961</ele>
        <time>2013-06-16T07:56:45Z</time>
      </trkpt>
      <trkpt lat="45.74048" lon="2.9663">
        <ele>951.79998779297</ele>
        <time>2013-06-16T07:57:58Z</time>
      </trkpt>
      <trkpt lat="45.74073" lon="2.96628">
        <ele>948.79998779297</ele>
        <time>2013-06-16T07:58:04Z</time>
      </trkpt>
      <trkpt lat="45.74155" lon="2.9679">
        <ele>941</ele>
        <time>2013-06-16T07:58:28Z</time>
      </trkpt>
      <trkpt lat="45.74311" lon="2.96904">
        <ele>937.20001220703</ele>
        <time>2013-06-16T07:58:55Z</time>
      </trkpt>
      <trkpt lat="45.7436" lon="2.96923">
        <ele>936</ele>
        <time>2013-06-16T07:59:03Z</time>
      </trkpt>
      <trkpt lat="45.74442" lon="2.9696">
        <ele>934.20001220703</ele>
        <time>2013-06-16T07:59:16Z</time>
      </trkpt>
      <trkpt lat="45.74456" lon="2.96967">
        <ele>933.40002441406</ele>
        <time>2013-06-16T07:59:18Z</time>
      </trkpt>
      <trkpt lat="45.74485" lon="2.9698">
        <ele>933</ele>
        <time>2013-06-16T07:59:22Z</time>
      </trkpt>
      <trkpt lat="45.74599" lon="2.97021">
        <ele>926.79998779297</ele>
        <time>2013-06-16T07:59:38Z</time>
      </trkpt>
      <trkpt lat="45.74872" lon="2.96884">
        <ele>920.20001220703</ele>
        <time>2013-06-16T08:00:22Z</time>
      </trkpt>
      <trkpt lat="45.7526" lon="2.96789">
        <ele>925.40002441406</ele>
        <time>2013-06-16T08:01:46Z</time>
      </trkpt>
      <trkpt lat="45.75265" lon="2.96791">
        <ele>926.40002441406</ele>
        <time>2013-06-16T08:01:48Z</time>
      </trkpt>
      <trkpt lat="45.75276" lon="2.96799">
        <ele>926.79998779297</ele>
        <time>2013-06-16T08:01:53Z</time>
      </trkpt>
      <trkpt lat="45.75278" lon="2.96799">
        <ele>927.59997558594</ele>
        <time>2013-06-16T08:01:55Z</time>
      </trkpt>
      <trkpt lat="45.7528" lon="2.96798">
        <ele>928.40002441406</ele>
        <time>2013-06-16T08:01:57Z</time>
      </trkpt>
      <trkpt lat="45.75288" lon="2.96756">
        <ele>928.40002441406</ele>
        <time>2013-06-16T08:02:15Z</time>
      </trkpt>
      <trkpt lat="45.75354" lon="2.96723">
        <ele>930.40002441406</ele>
        <time>2013-06-16T08:02:48Z</time>
      </trkpt>
      <trkpt lat="45.75532" lon="2.96642">
        <ele>932.40002441406</ele>
        <time>2013-06-16T08:03:45Z</time>
      </trkpt>
      <trkpt lat="45.75821" lon="2.96525">
        <ele>934.59997558594</ele>
        <time>2013-06-16T08:05:07Z</time>
      </trkpt>
      <trkpt lat="45.75843" lon="2.96525">
        <ele>934.59997558594</ele>
        <time>2013-06-16T08:05:13Z</time>
      </trkpt>
      <trkpt lat="45.75797" lon="2.96737">
        <ele>936.20001220703</ele>
        <time>2013-06-16T08:14:03Z</time>
      </trkpt>
      <trkpt lat="45.75771" lon="2.96841">
        <ele>932.59997558594</ele>
        <time>2013-06-16T08:14:16Z</time>
      </trkpt>
      <trkpt lat="45.75766" lon="2.96858">
        <ele>932.20001220703</ele>
        <time>2013-06-16T08:14:18Z</time>
      </trkpt>
      <trkpt lat="45.75655" lon="2.97314">
        <ele>926.79998779297</ele>
        <time>2013-06-16T08:15:17Z</time>
      </trkpt>
      <trkpt lat="45.75642" lon="2.97381">
        <ele>925.20001220703</ele>
        <time>2013-06-16T08:15:26Z</time>
      </trkpt>
      <trkpt lat="45.75751" lon="2.97405">
        <ele>920.79998779297</ele>
        <time>2013-06-16T08:16:17Z</time>
      </trkpt>
      <trkpt lat="45.75787" lon="2.97406">
        <ele>919.40002441406</ele>
        <time>2013-06-16T08:16:22Z</time>
      </trkpt>
      <trkpt lat="45.75839" lon="2.97406">
        <ele>916.79998779297</ele>
        <time>2013-06-16T08:16:28Z</time>
      </trkpt>
      <trkpt lat="45.75906" lon="2.97399">
        <ele>912.79998779297</ele>
        <time>2013-06-16T08:16:40Z</time>
      </trkpt>
      <trkpt lat="45.75966" lon="2.97426">
        <ele>911</ele>
        <time>2013-06-16T08:16:53Z</time>
      </trkpt>
      <trkpt lat="45.76155" lon="2.97596">
        <ele>902.40002441406</ele>
        <time>2013-06-16T08:17:25Z</time>
      </trkpt>
      <trkpt lat="45.76267" lon="2.97652">
        <ele>900.40002441406</ele>
        <time>2013-06-16T08:18:13Z</time>
      </trkpt>
      <trkpt lat="45.76435" lon="2.97815">
        <ele>900.40002441406</ele>
        <time>2013-06-16T08:18:57Z</time>
      </trkpt>
      <trkpt lat="45.7651" lon="2.97866">
        <ele>900.40002441406</ele>
        <time>2013-06-16T08:24:52Z</time>
      </trkpt>
      <trkpt lat="45.7658" lon="2.97894">
        <ele>900.40002441406</ele>
        <time>2013-06-16T08:25:08Z</time>
      </trkpt>
      <trkpt lat="45.76678" lon="2.97889">
        <ele>904.40002441406</ele>
        <time>2013-06-16T08:25:36Z</time>
      </trkpt>
      <trkpt lat="45.76698" lon="2.97893">
        <ele>904.40002441406</ele>
        <time>2013-06-16T08:25:43Z</time>
      </trkpt>
      <trkpt lat="45.76787" lon="2.97929">
        <ele>904.40002441406</ele>
        <time>2013-06-16T08:26:08Z</time>
      </trkpt>
      <trkpt lat="45.76828" lon="2.97941">
        <ele>904.40002441406</ele>
        <time>2013-06-16T08:26:14Z</time>
      </trkpt>
      <trkpt lat="45.76943" lon="2.9795">
        <ele>904.40002441406</ele>
        <time>2013-06-16T08:26:32Z</time>
      </trkpt>
      <trkpt lat="45.77105" lon="2.98042">
        <ele>904.40002441406</ele>
        <time>2013-06-16T08:27:16Z</time>
      </trkpt>
      <trkpt lat="45.77166" lon="2.98108">
        <ele>898</ele>
        <time>2013-06-16T08:27:33Z</time>
      </trkpt>
      <trkpt lat="45.7725" lon="2.98181">
        <ele>894.20001220703</ele>
        <time>2013-06-16T08:27:45Z</time>
      </trkpt>
      <trkpt lat="45.77574" lon="2.98337">
        <ele>893.79998779297</ele>
        <time>2013-06-16T08:28:41Z</time>
      </trkpt>
      <trkpt lat="45.77739" lon="2.98447">
        <ele>898.20001220703</ele>
        <time>2013-06-16T08:29:25Z</time>
      </trkpt>
      <trkpt lat="45.77917" lon="2.98556">
        <ele>898.20001220703</ele>
        <time>2013-06-16T08:30:19Z</time>
      </trkpt>
      <trkpt lat="45.7803" lon="2.9859">
        <ele>898.20001220703</ele>
        <time>2013-06-16T08:30:49Z</time>
      </trkpt>
      <trkpt lat="45.78181" lon="2.98584">
        <ele>898.20001220703</ele>
        <time>2013-06-16T08:31:23Z</time>
      </trkpt>
      <trkpt lat="45.78487" lon="2.98475">
        <ele>906.40002441406</ele>
        <time>2013-06-16T08:32:35Z</time>
      </trkpt>
      <trkpt lat="45.7855" lon="2.98429">
        <ele>907</ele>
        <time>2013-06-16T08:32:54Z</time>
      </trkpt>
      <trkpt lat="45.78562" lon="2.98424">
        <ele>908.59997558594</ele>
        <time>2013-06-16T08:32:58Z</time>
      </trkpt>
      <trkpt lat="45.78587" lon="2.98414">
        <ele>908.59997558594</ele>
        <time>2013-06-16T08:33:06Z</time>
      </trkpt>
      <trkpt lat="45.78618" lon="2.9842">
        <ele>910.79998779297</ele>
        <time>2013-06-16T08:33:15Z</time>
      </trkpt>
      <trkpt lat="45.78827" lon="2.9843">
        <ele>910.79998779297</ele>
        <time>2013-06-16T08:33:57Z</time>
      </trkpt>
      <trkpt lat="45.78945" lon="2.98477">
        <ele>912.79998779297</ele>
        <time>2013-06-16T08:34:22Z</time>
      </trkpt>
      <trkpt lat="45.7899" lon="2.98483">
        <ele>912.79998779297</ele>
        <time>2013-06-16T08:34:30Z</time>
      </trkpt>
      <trkpt lat="45.79122" lon="2.98513">
        <ele>912.79998779297</ele>
        <time>2013-06-16T08:34:52Z</time>
      </trkpt>
      <trkpt lat="45.79394" lon="2.98633">
        <ele>910.79998779297</ele>
        <time>2013-06-16T08:35:38Z</time>
      </trkpt>
      <trkpt lat="45.79421" lon="2.98681">
        <ele>910.79998779297</ele>
        <time>2013-06-16T08:35:46Z</time>
      </trkpt>
      <trkpt lat="45.79502" lon="2.98765">
        <ele>910.79998779297</ele>
        <time>2013-06-16T08:36:05Z</time>
      </trkpt>
      <trkpt lat="45.79542" lon="2.98756">
        <ele>913.20001220703</ele>
        <time>2013-06-16T08:36:14Z</time>
      </trkpt>
      <trkpt lat="45.79598" lon="2.98755">
        <ele>916</ele>
        <time>2013-06-16T08:36:29Z</time>
      </trkpt>
      <trkpt lat="45.79603" lon="2.98758">
        <ele>916.79998779297</ele>
        <time>2013-06-16T08:36:31Z</time>
      </trkpt>
      <trkpt lat="45.79614" lon="2.98765">
        <ele>916.79998779297</ele>
        <time>2013-06-16T08:36:37Z</time>
      </trkpt>
      <trkpt lat="45.79621" lon="2.98767">
        <ele>916.79998779297</ele>
        <time>2013-06-16T08:36:41Z</time>
      </trkpt>
      <trkpt lat="45.7964" lon="2.98772">
        <ele>916.79998779297</ele>
        <time>2013-06-16T08:36:53Z</time>
      </trkpt>
      <trkpt lat="45.79685" lon="2.98804">
        <ele>918.79998779297</ele>
        <time>2013-06-16T08:37:24Z</time>
      </trkpt>
      <trkpt lat="45.79694" lon="2.98829">
        <ele>918.79998779297</ele>
        <time>2013-06-16T08:37:31Z</time>
      </trkpt>
      <trkpt lat="45.79708" lon="2.98857">
        <ele>920.79998779297</ele>
        <time>2013-06-16T08:37:39Z</time>
      </trkpt>
      <trkpt lat="45.79748" lon="2.98867">
        <ele>922.20001220703</ele>
        <time>2013-06-16T08:37:53Z</time>
      </trkpt>
      <trkpt lat="45.79821" lon="2.9888">
        <ele>929.40002441406</ele>
        <time>2013-06-16T08:38:21Z</time>
      </trkpt>
      <trkpt lat="45.79822" lon="2.9888">
        <ele>929.40002441406</ele>
        <time>2013-06-16T08:38:22Z</time>
      </trkpt>
      <trkpt lat="45.79842" lon="2.98863">
        <ele>931.59997558594</ele>
        <time>2013-06-16T08:38:34Z</time>
      </trkpt>
      <trkpt lat="45.79834" lon="2.98836">
        <ele>932.40002441406</ele>
        <time>2013-06-16T08:38:43Z</time>
      </trkpt>
      <trkpt lat="45.79829" lon="2.98825">
        <ele>933.79998779297</ele>
        <time>2013-06-16T08:38:46Z</time>
      </trkpt>
      <trkpt lat="45.79821" lon="2.98762">
        <ele>933.79998779297</ele>
        <time>2013-06-16T08:39:00Z</time>
      </trkpt>
      <trkpt lat="45.79837" lon="2.98741">
        <ele>933.79998779297</ele>
        <time>2013-06-16T08:39:04Z</time>
      </trkpt>
      <trkpt lat="45.7987" lon="2.98709">
        <ele>933.79998779297</ele>
        <time>2013-06-16T08:39:10Z</time>
      </trkpt>
      <trkpt lat="45.79875" lon="2.98684">
        <ele>933.79998779297</ele>
        <time>2013-06-16T08:39:13Z</time>
      </trkpt>
      <trkpt lat="45.79806" lon="2.98377">
        <ele>939.40002441406</ele>
        <time>2013-06-16T08:40:09Z</time>
      </trkpt>
      <trkpt lat="45.79829" lon="2.98342">
        <ele>939.79998779297</ele>
        <time>2013-06-16T08:40:21Z</time>
      </trkpt>
      <trkpt lat="45.79865" lon="2.98351">
        <ele>941</ele>
        <time>2013-06-16T08:40:43Z</time>
      </trkpt>
      <trkpt lat="45.79868" lon="2.98352">
        <ele>941.79998779297</ele>
        <time>2013-06-16T08:40:45Z</time>
      </trkpt>
      <trkpt lat="45.79905" lon="2.98361">
        <ele>941.40002441406</ele>
        <time>2013-06-16T08:40:58Z</time>
      </trkpt>
      <trkpt lat="45.79922" lon="2.9836">
        <ele>940.20001220703</ele>
        <time>2013-06-16T08:41:01Z</time>
      </trkpt>
      <trkpt lat="45.80184" lon="2.98389">
        <ele>944.40002441406</ele>
        <time>2013-06-16T08:42:03Z</time>
      </trkpt>
      <trkpt lat="45.80245" lon="2.98469">
        <ele>952.79998779297</ele>
        <time>2013-06-16T08:42:34Z</time>
      </trkpt>
      <trkpt lat="45.80283" lon="2.98486">
        <ele>952.40002441406</ele>
        <time>2013-06-16T08:42:41Z</time>
      </trkpt>
      <trkpt lat="45.80332" lon="2.98461">
        <ele>950.79998779297</ele>
        <time>2013-06-16T08:42:54Z</time>
      </trkpt>
      <trkpt lat="45.80338" lon="2.98463">
        <ele>948.79998779297</ele>
        <time>2013-06-16T08:51:17Z</time>
      </trkpt>
      <trkpt lat="45.80373" lon="2.98397">
        <ele>948.79998779297</ele>
        <time>2013-06-16T08:51:38Z</time>
      </trkpt>
      <trkpt lat="45.80354" lon="2.98348">
        <ele>953</ele>
        <time>2013-06-16T08:51:57Z</time>
      </trkpt>
      <trkpt lat="45.80347" lon="2.98306">
        <ele>955.40002441406</ele>
        <time>2013-06-16T08:52:07Z</time>
      </trkpt>
      <trkpt lat="45.80354" lon="2.98273">
        <ele>955.40002441406</ele>
        <time>2013-06-16T08:52:15Z</time>
      </trkpt>
      <trkpt lat="45.80386" lon="2.98221">
        <ele>955.40002441406</ele>
        <time>2013-06-16T08:52:26Z</time>
      </trkpt>
      <trkpt lat="45.80388" lon="2.98144">
        <ele>959.59997558594</ele>
        <time>2013-06-16T08:52:47Z</time>
      </trkpt>
      <trkpt lat="45.80395" lon="2.98124">
        <ele>960.59997558594</ele>
        <time>2013-06-16T08:52:56Z</time>
      </trkpt>
      <trkpt lat="45.80433" lon="2.97995">
        <ele>975.40002441406</ele>
        <time>2013-06-16T08:53:52Z</time>
      </trkpt>
      <trkpt lat="45.80438" lon="2.97974">
        <ele>978.79998779297</ele>
        <time>2013-06-16T08:54:04Z</time>
      </trkpt>
      <trkpt lat="45.80451" lon="2.97928">
        <ele>983.20001220703</ele>
        <time>2013-06-16T08:54:23Z</time>
      </trkpt>
      <trkpt lat="45.80457" lon="2.97639">
        <ele>989.20001220703</ele>
        <time>2013-06-16T08:55:37Z</time>
      </trkpt>
      <trkpt lat="45.80465" lon="2.97597">
        <ele>989.20001220703</ele>
        <time>2013-06-16T08:55:43Z</time>
      </trkpt>
      <trkpt lat="45.80432" lon="2.97457">
        <ele>991.59997558594</ele>
        <time>2013-06-16T09:00:50Z</time>
      </trkpt>
      <trkpt lat="45.80401" lon="2.97408">
        <ele>991.59997558594</ele>
        <time>2013-06-16T09:00:57Z</time>
      </trkpt>
      <trkpt lat="45.80383" lon="2.97342">
        <ele>991.59997558594</ele>
        <time>2013-06-16T09:01:08Z</time>
      </trkpt>
      <trkpt lat="45.80375" lon="2.97206">
        <ele>997.20001220703</ele>
        <time>2013-06-16T09:01:37Z</time>
      </trkpt>
      <trkpt lat="45.80373" lon="2.97096">
        <ele>1000</ele>
        <time>2013-06-16T09:02:01Z</time>
      </trkpt>
      <trkpt lat="45.80326" lon="2.96978">
        <ele>1004.4000244141</ele>
        <time>2013-06-16T09:02:27Z</time>
      </trkpt>
      <trkpt lat="45.80299" lon="2.9689">
        <ele>1006.4000244141</ele>
        <time>2013-06-16T09:02:46Z</time>
      </trkpt>
      <trkpt lat="45.80211" lon="2.96667">
        <ele>1008.4000244141</ele>
        <time>2013-06-16T09:03:38Z</time>
      </trkpt>
      <trkpt lat="45.80056" lon="2.96518">
        <ele>1013.799987793</ele>
        <time>2013-06-16T09:04:37Z</time>
      </trkpt>
      <trkpt lat="45.79768" lon="2.96404">
        <ele>1028</ele>
        <time>2013-06-16T09:06:31Z</time>
      </trkpt>
      <trkpt lat="45.79682" lon="2.96406">
        <ele>1033.4000244141</ele>
        <time>2013-06-16T09:07:03Z</time>
      </trkpt>
      <trkpt lat="45.79546" lon="2.96468">
        <ele>1033.4000244141</ele>
        <time>2013-06-16T09:07:39Z</time>
      </trkpt>
      <trkpt lat="45.7948" lon="2.96526">
        <ele>1031.1999511719</ele>
        <time>2013-06-16T09:07:56Z</time>
      </trkpt>
      <trkpt lat="45.79451" lon="2.9657">
        <ele>1031.1999511719</ele>
        <time>2013-06-16T09:08:06Z</time>
      </trkpt>
      <trkpt lat="45.7934" lon="2.96817">
        <ele>1048.1999511719</ele>
        <time>2013-06-16T09:09:27Z</time>
      </trkpt>
      <trkpt lat="45.79319" lon="2.9687">
        <ele>1048.1999511719</ele>
        <time>2013-06-16T09:12:13Z</time>
      </trkpt>
      <trkpt lat="45.79302" lon="2.96853">
        <ele>1050.1999511719</ele>
        <time>2013-06-16T09:12:23Z</time>
      </trkpt>
      <trkpt lat="45.79242" lon="2.96878">
        <ele>1053.1999511719</ele>
        <time>2013-06-16T09:12:50Z</time>
      </trkpt>
      <trkpt lat="45.79188" lon="2.9686">
        <ele>1061</ele>
        <time>2013-06-16T09:13:23Z</time>
      </trkpt>
      <trkpt lat="45.79152" lon="2.96851">
        <ele>1063</ele>
        <time>2013-06-16T09:13:40Z</time>
      </trkpt>
      <trkpt lat="45.79007" lon="2.96749">
        <ele>1075.5999755859</ele>
        <time>2013-06-16T09:14:52Z</time>
      </trkpt>
      <trkpt lat="45.78932" lon="2.96718">
        <ele>1081.8000488281</ele>
        <time>2013-06-16T09:15:27Z</time>
      </trkpt>
      <trkpt lat="45.78696" lon="2.96684">
        <ele>1096.8000488281</ele>
        <time>2013-06-16T09:17:06Z</time>
      </trkpt>
      <trkpt lat="45.78513" lon="2.96656">
        <ele>1103</ele>
        <time>2013-06-16T09:22:38Z</time>
      </trkpt>
      <trkpt lat="45.78494" lon="2.96656">
        <ele>1103</ele>
        <time>2013-06-16T09:22:42Z</time>
      </trkpt>
      <trkpt lat="45.78399" lon="2.96598">
        <ele>1094.5999755859</ele>
        <time>2013-06-16T09:22:54Z</time>
      </trkpt>
      <trkpt lat="45.78392" lon="2.96587">
        <ele>1092.5999755859</ele>
        <time>2013-06-16T09:22:56Z</time>
      </trkpt>
      <trkpt lat="45.78374" lon="2.96393">
        <ele>1089.5999755859</ele>
        <time>2013-06-16T09:23:23Z</time>
      </trkpt>
      <trkpt lat="45.78379" lon="2.9635">
        <ele>1088.8000488281</ele>
        <time>2013-06-16T09:23:28Z</time>
      </trkpt>
      <trkpt lat="45.78389" lon="2.96288">
        <ele>1086.4000244141</ele>
        <time>2013-06-16T09:23:34Z</time>
      </trkpt>
      <trkpt lat="45.78418" lon="2.96231">
        <ele>1079.4000244141</ele>
        <time>2013-06-16T09:23:43Z</time>
      </trkpt>
      <trkpt lat="45.78505" lon="2.96176">
        <ele>1069.5999755859</ele>
        <time>2013-06-16T09:24:02Z</time>
      </trkpt>
      <trkpt lat="45.78514" lon="2.96147">
        <ele>1064.5999755859</ele>
        <time>2013-06-16T09:24:14Z</time>
      </trkpt>
      <trkpt lat="45.78586" lon="2.96061">
        <ele>1057.4000244141</ele>
        <time>2013-06-16T09:24:39Z</time>
      </trkpt>
      <trkpt lat="45.78621" lon="2.95983">
        <ele>1051.4000244141</ele>
        <time>2013-06-16T09:24:49Z</time>
      </trkpt>
      <trkpt lat="45.78587" lon="2.95832">
        <ele>1042.4000244141</ele>
        <time>2013-06-16T09:25:17Z</time>
      </trkpt>
      <trkpt lat="45.78585" lon="2.95635">
        <ele>1034.4000244141</ele>
        <time>2013-06-16T09:25:35Z</time>
      </trkpt>
      <trkpt lat="45.78599" lon="2.95501">
        <ele>1031.5999755859</ele>
        <time>2013-06-16T09:25:47Z</time>
      </trkpt>
      <trkpt lat="45.78599" lon="2.95493">
        <ele>1031.1999511719</ele>
        <time>2013-06-16T09:25:48Z</time>
      </trkpt>
      <trkpt lat="45.78578" lon="2.9547">
        <ele>1029.5999755859</ele>
        <time>2013-06-16T09:26:00Z</time>
      </trkpt>
      <trkpt lat="45.78554" lon="2.95372">
        <ele>1028</ele>
        <time>2013-06-16T09:26:26Z</time>
      </trkpt>
      <trkpt lat="45.78534" lon="2.95313">
        <ele>1026</ele>
        <time>2013-06-16T09:26:48Z</time>
      </trkpt>
      <trkpt lat="45.78527" lon="2.95287">
        <ele>1026</ele>
        <time>2013-06-16T09:26:51Z</time>
      </trkpt>
      <trkpt lat="45.78518" lon="2.95275">
        <ele>1025.5999755859</ele>
        <time>2013-06-16T09:26:53Z</time>
      </trkpt>
      <trkpt lat="45.78467" lon="2.95173">
        <ele>1020.4000244141</ele>
        <time>2013-06-16T09:27:07Z</time>
      </trkpt>
      <trkpt lat="45.78457" lon="2.95145">
        <ele>1019</ele>
        <time>2013-06-16T09:27:10Z</time>
      </trkpt>
      <trkpt lat="45.78445" lon="2.95115">
        <ele>1016</ele>
        <time>2013-06-16T09:27:13Z</time>
      </trkpt>
      <trkpt lat="45.78437" lon="2.95093">
        <ele>1014.4000244141</ele>
        <time>2013-06-16T09:27:15Z</time>
      </trkpt>
      <trkpt lat="45.78425" lon="2.95058">
        <ele>1012</ele>
        <time>2013-06-16T09:27:18Z</time>
      </trkpt>
      <trkpt lat="45.78416" lon="2.95034">
        <ele>1010.4000244141</ele>
        <time>2013-06-16T09:27:20Z</time>
      </trkpt>
      <trkpt lat="45.78407" lon="2.95009">
        <ele>1008.799987793</ele>
        <time>2013-06-16T09:27:22Z</time>
      </trkpt>
      <trkpt lat="45.78272" lon="2.94749">
        <ele>996.20001220703</ele>
        <time>2013-06-16T09:27:50Z</time>
      </trkpt>
      <trkpt lat="45.78213" lon="2.94681">
        <ele>994</ele>
        <time>2013-06-16T09:27:59Z</time>
      </trkpt>
      <trkpt lat="45.78146" lon="2.94578">
        <ele>992</ele>
        <time>2013-06-16T09:28:11Z</time>
      </trkpt>
      <trkpt lat="45.78088" lon="2.94429">
        <ele>989.40002441406</ele>
        <time>2013-06-16T09:28:27Z</time>
      </trkpt>
      <trkpt lat="45.78039" lon="2.94312">
        <ele>984.59997558594</ele>
        <time>2013-06-16T09:28:40Z</time>
      </trkpt>
      <trkpt lat="45.78018" lon="2.94252">
        <ele>980.20001220703</ele>
        <time>2013-06-16T09:28:47Z</time>
      </trkpt>
      <trkpt lat="45.77962" lon="2.94186">
        <ele>977</ele>
        <time>2013-06-16T09:28:57Z</time>
      </trkpt>
      <trkpt lat="45.77894" lon="2.94161">
        <ele>976.59997558594</ele>
        <time>2013-06-16T09:29:11Z</time>
      </trkpt>
      <trkpt lat="45.77888" lon="2.94162">
        <ele>976.59997558594</ele>
        <time>2013-06-16T09:29:16Z</time>
      </trkpt>
      <trkpt lat="45.77827" lon="2.94148">
        <ele>970.59997558594</ele>
        <time>2013-06-16T09:29:49Z</time>
      </trkpt>
      <trkpt lat="45.77793" lon="2.94105">
        <ele>965.20001220703</ele>
        <time>2013-06-16T09:29:55Z</time>
      </trkpt>
      <trkpt lat="45.77742" lon="2.94029">
        <ele>957.40002441406</ele>
        <time>2013-06-16T09:30:04Z</time>
      </trkpt>
      <trkpt lat="45.77632" lon="2.93878">
        <ele>940.20001220703</ele>
        <time>2013-06-16T09:30:25Z</time>
      </trkpt>
      <trkpt lat="45.77475" lon="2.93732">
        <ele>929.59997558594</ele>
        <time>2013-06-16T09:30:45Z</time>
      </trkpt>
      <trkpt lat="45.77423" lon="2.93686">
        <ele>927.59997558594</ele>
        <time>2013-06-16T09:30:52Z</time>
      </trkpt>
      <trkpt lat="45.77284" lon="2.93734">
        <ele>923.79998779297</ele>
        <time>2013-06-16T09:31:21Z</time>
      </trkpt>
      <trkpt lat="45.77264" lon="2.93745">
        <ele>923.79998779297</ele>
        <time>2013-06-16T09:31:27Z</time>
      </trkpt>
      <trkpt lat="45.77236" lon="2.93787">
        <ele>923.79998779297</ele>
        <time>2013-06-16T09:31:39Z</time>
      </trkpt>
      <trkpt lat="45.77169" lon="2.93771">
        <ele>923.79998779297</ele>
        <time>2013-06-16T09:32:00Z</time>
      </trkpt>
      <trkpt lat="45.77071" lon="2.93803">
        <ele>925.79998779297</ele>
        <time>2013-06-16T09:32:32Z</time>
      </trkpt>
      <trkpt lat="45.77033" lon="2.93808">
        <ele>925.79998779297</ele>
        <time>2013-06-16T09:32:44Z</time>
      </trkpt>
      <trkpt lat="45.76994" lon="2.93809">
        <ele>926.59997558594</ele>
        <time>2013-06-16T09:32:56Z</time>
      </trkpt>
      <trkpt lat="45.7699" lon="2.93809">
        <ele>927.79998779297</ele>
        <time>2013-06-16T09:32:58Z</time>
      </trkpt>
      <trkpt lat="45.76918" lon="2.938">
        <ele>929.79998779297</ele>
        <time>2013-06-16T09:33:21Z</time>
      </trkpt>
      <trkpt lat="45.76866" lon="2.93797">
        <ele>930.20001220703</ele>
        <time>2013-06-16T09:33:36Z</time>
      </trkpt>
      <trkpt lat="45.76857" lon="2.93798">
        <ele>931.20001220703</ele>
        <time>2013-06-16T09:33:38Z</time>
      </trkpt>
      <trkpt lat="45.76849" lon="2.93799">
        <ele>932</ele>
        <time>2013-06-16T09:33:40Z</time>
      </trkpt>
      <trkpt lat="45.76836" lon="2.938">
        <ele>932</ele>
        <time>2013-06-16T09:33:45Z</time>
      </trkpt>
      <trkpt lat="45.76696" lon="2.93894">
        <ele>941.79998779297</ele>
        <time>2013-06-16T09:35:42Z</time>
      </trkpt>
      <trkpt lat="45.76643" lon="2.93948">
        <ele>944.40002441406</ele>
        <time>2013-06-16T09:36:03Z</time>
      </trkpt>
      <trkpt lat="45.76604" lon="2.94013">
        <ele>950.59997558594</ele>
        <time>2013-06-16T09:36:27Z</time>
      </trkpt>
      <trkpt lat="45.76588" lon="2.94038">
        <ele>950.59997558594</ele>
        <time>2013-06-16T09:36:36Z</time>
      </trkpt>
      <trkpt lat="45.76507" lon="2.94214">
        <ele>963.20001220703</ele>
        <time>2013-06-16T09:37:34Z</time>
      </trkpt>
      <trkpt lat="45.76466" lon="2.94276">
        <ele>965.59997558594</ele>
        <time>2013-06-16T09:37:59Z</time>
      </trkpt>
      <trkpt lat="45.76426" lon="2.94432">
        <ele>973.59997558594</ele>
        <time>2013-06-16T09:38:44Z</time>
      </trkpt>
      <trkpt lat="45.76422" lon="2.94481">
        <ele>973.59997558594</ele>
        <time>2013-06-16T09:38:55Z</time>
      </trkpt>
      <trkpt lat="45.76421" lon="2.94506">
        <ele>975.79998779297</ele>
        <time>2013-06-16T09:39:00Z</time>
      </trkpt>
      <trkpt lat="45.76422" lon="2.94555">
        <ele>976.59997558594</ele>
        <time>2013-06-16T09:39:11Z</time>
      </trkpt>
      <trkpt lat="45.76396" lon="2.94602">
        <ele>977.79998779297</ele>
        <time>2013-06-16T09:39:28Z</time>
      </trkpt>
      <trkpt lat="45.7639" lon="2.94612">
        <ele>978.79998779297</ele>
        <time>2013-06-16T09:39:33Z</time>
      </trkpt>
      <trkpt lat="45.76388" lon="2.94615">
        <ele>979.59997558594</ele>
        <time>2013-06-16T09:39:35Z</time>
      </trkpt>
      <trkpt lat="45.76351" lon="2.94622">
        <ele>982</ele>
        <time>2013-06-16T09:39:57Z</time>
      </trkpt>
      <trkpt lat="45.76324" lon="2.94562">
        <ele>982</ele>
        <time>2013-06-16T09:48:32Z</time>
      </trkpt>
      <trkpt lat="45.76314" lon="2.94515">
        <ele>981.20001220703</ele>
        <time>2013-06-16T09:48:38Z</time>
      </trkpt>
      <trkpt lat="45.76308" lon="2.94496">
        <ele>980.40002441406</ele>
        <time>2013-06-16T09:48:40Z</time>
      </trkpt>
      <trkpt lat="45.76301" lon="2.94463">
        <ele>980</ele>
        <time>2013-06-16T09:48:43Z</time>
      </trkpt>
      <trkpt lat="45.76278" lon="2.94376">
        <ele>977</ele>
        <time>2013-06-16T09:48:52Z</time>
      </trkpt>
      <trkpt lat="45.76193" lon="2.94214">
        <ele>971.40002441406</ele>
        <time>2013-06-16T09:49:12Z</time>
      </trkpt>
      <trkpt lat="45.76064" lon="2.94005">
        <ele>968</ele>
        <time>2013-06-16T09:49:37Z</time>
      </trkpt>
      <trkpt lat="45.76022" lon="2.93961">
        <ele>966.79998779297</ele>
        <time>2013-06-16T09:49:45Z</time>
      </trkpt>
      <trkpt lat="45.75993" lon="2.93934">
        <ele>965</ele>
        <time>2013-06-16T09:49:51Z</time>
      </trkpt>
      <trkpt lat="45.75986" lon="2.93927">
        <ele>964.59997558594</ele>
        <time>2013-06-16T09:49:55Z</time>
      </trkpt>
      <trkpt lat="45.75882" lon="2.93894">
        <ele>964.59997558594</ele>
        <time>2013-06-16T09:50:21Z</time>
      </trkpt>
      <trkpt lat="45.75775" lon="2.93903">
        <ele>964.59997558594</ele>
        <time>2013-06-16T09:50:47Z</time>
      </trkpt>
      <trkpt lat="45.7559" lon="2.93931">
        <ele>964.59997558594</ele>
        <time>2013-06-16T09:51:57Z</time>
      </trkpt>
      <trkpt lat="45.75455" lon="2.93924">
        <ele>964.59997558594</ele>
        <time>2013-06-16T09:52:44Z</time>
      </trkpt>
      <trkpt lat="45.75399" lon="2.93901">
        <ele>964.59997558594</ele>
        <time>2013-06-16T09:53:41Z</time>
      </trkpt>
      <trkpt lat="45.75343" lon="2.9386">
        <ele>961.59997558594</ele>
        <time>2013-06-16T09:53:49Z</time>
      </trkpt>
      <trkpt lat="45.75296" lon="2.93815">
        <ele>959</ele>
        <time>2013-06-16T09:53:55Z</time>
      </trkpt>
      <trkpt lat="45.75281" lon="2.93794">
        <ele>958.20001220703</ele>
        <time>2013-06-16T09:53:57Z</time>
      </trkpt>
      <trkpt lat="45.75258" lon="2.93766">
        <ele>956.20001220703</ele>
        <time>2013-06-16T09:54:00Z</time>
      </trkpt>
      <trkpt lat="45.75199" lon="2.93741">
        <ele>953.59997558594</ele>
        <time>2013-06-16T09:54:09Z</time>
      </trkpt>
      <trkpt lat="45.74907" lon="2.93746">
        <ele>966</ele>
        <time>2013-06-16T09:55:38Z</time>
      </trkpt>
      <trkpt lat="45.74817" lon="2.93675">
        <ele>970.20001220703</ele>
        <time>2013-06-16T09:56:16Z</time>
      </trkpt>
      <trkpt lat="45.74507" lon="2.93431">
        <ele>972.40002441406</ele>
        <time>2013-06-16T09:57:50Z</time>
      </trkpt>
      <trkpt lat="45.74462" lon="2.93402">
        <ele>970</ele>
        <time>2013-06-16T09:57:59Z</time>
      </trkpt>
      <trkpt lat="45.74259" lon="2.93441">
        <ele>982.59997558594</ele>
        <time>2013-06-16T09:59:18Z</time>
      </trkpt>
      <trkpt lat="45.74142" lon="2.93462">
        <ele>984.79998779297</ele>
        <time>2013-06-16T10:01:23Z</time>
      </trkpt>
      <trkpt lat="45.74057" lon="2.93059">
        <ele>978</ele>
        <time>2013-06-16T10:02:52Z</time>
      </trkpt>
      <trkpt lat="45.74045" lon="2.92974">
        <ele>976</ele>
        <time>2013-06-16T10:03:07Z</time>
      </trkpt>
      <trkpt lat="45.74042" lon="2.9295">
        <ele>974.59997558594</ele>
        <time>2013-06-16T10:03:09Z</time>
      </trkpt>
      <trkpt lat="45.74031" lon="2.92895">
        <ele>971</ele>
        <time>2013-06-16T10:03:13Z</time>
      </trkpt>
      <trkpt lat="45.74025" lon="2.92866">
        <ele>969.40002441406</ele>
        <time>2013-06-16T10:03:15Z</time>
      </trkpt>
      <trkpt lat="45.7402" lon="2.92837">
        <ele>967.79998779297</ele>
        <time>2013-06-16T10:03:17Z</time>
      </trkpt>
      <trkpt lat="45.73977" lon="2.92719">
        <ele>963.20001220703</ele>
        <time>2013-06-16T10:03:27Z</time>
      </trkpt>
      <trkpt lat="45.73898" lon="2.9261">
        <ele>963.20001220703</ele>
        <time>2013-06-16T10:03:46Z</time>
      </trkpt>
      <trkpt lat="45.7387" lon="2.92587">
        <ele>963.20001220703</ele>
        <time>2013-06-16T10:03:51Z</time>
      </trkpt>
      <trkpt lat="45.73758" lon="2.92399">
        <ele>956.59997558594</ele>
        <time>2013-06-16T10:04:15Z</time>
      </trkpt>
      <trkpt lat="45.73712" lon="2.92321">
        <ele>956.20001220703</ele>
        <time>2013-06-16T10:04:26Z</time>
      </trkpt>
      <trkpt lat="45.73708" lon="2.92312">
        <ele>955.79998779297</ele>
        <time>2013-06-16T10:04:27Z</time>
      </trkpt>
      <trkpt lat="45.73702" lon="2.92301">
        <ele>955</ele>
        <time>2013-06-16T10:04:29Z</time>
      </trkpt>
      <trkpt lat="45.73698" lon="2.92296">
        <ele>954.59997558594</ele>
        <time>2013-06-16T10:04:34Z</time>
      </trkpt>
      <trkpt lat="45.73706" lon="2.92322">
        <ele>954.59997558594</ele>
        <time>2013-06-16T10:05:03Z</time>
      </trkpt>
      <trkpt lat="45.73622" lon="2.92332">
        <ele>962.79998779297</ele>
        <time>2013-06-16T10:05:49Z</time>
      </trkpt>
      <trkpt lat="45.73581" lon="2.92327">
        <ele>962.79998779297</ele>
        <time>2013-06-16T10:06:03Z</time>
      </trkpt>
      <trkpt lat="45.73541" lon="2.92328">
        <ele>962.79998779297</ele>
        <time>2013-06-16T10:06:12Z</time>
      </trkpt>
      <trkpt lat="45.7348" lon="2.92364">
        <ele>957</ele>
        <time>2013-06-16T10:06:22Z</time>
      </trkpt>
      <trkpt lat="45.73466" lon="2.92382">
        <ele>955.59997558594</ele>
        <time>2013-06-16T10:06:24Z</time>
      </trkpt>
      <trkpt lat="45.73425" lon="2.92448">
        <ele>950.59997558594</ele>
        <time>2013-06-16T10:06:30Z</time>
      </trkpt>
      <trkpt lat="45.7338" lon="2.92488">
        <ele>950.59997558594</ele>
        <time>2013-06-16T10:06:38Z</time>
      </trkpt>
      <trkpt lat="45.73374" lon="2.92512">
        <ele>950.59997558594</ele>
        <time>2013-06-16T10:06:43Z</time>
      </trkpt>
      <trkpt lat="45.7339" lon="2.92822">
        <ele>962.59997558594</ele>
        <time>2013-06-16T10:07:53Z</time>
      </trkpt>
      <trkpt lat="45.73437" lon="2.92982">
        <ele>970.59997558594</ele>
        <time>2013-06-16T10:08:37Z</time>
      </trkpt>
      <trkpt lat="45.73479" lon="2.93054">
        <ele>975.59997558594</ele>
        <time>2013-06-16T10:09:01Z</time>
      </trkpt>
      <trkpt lat="45.7351" lon="2.93093">
        <ele>977.59997558594</ele>
        <time>2013-06-16T10:09:14Z</time>
      </trkpt>
      <trkpt lat="45.7351" lon="2.93137">
        <ele>977.59997558594</ele>
        <time>2013-06-16T10:09:24Z</time>
      </trkpt>
      <trkpt lat="45.73514" lon="2.93147">
        <ele>978.79998779297</ele>
        <time>2013-06-16T10:09:28Z</time>
      </trkpt>
      <trkpt lat="45.73513" lon="2.93149">
        <ele>979.79998779297</ele>
        <time>2013-06-16T10:09:30Z</time>
      </trkpt>
      <trkpt lat="45.73513" lon="2.93155">
        <ele>979.79998779297</ele>
        <time>2013-06-16T10:09:58Z</time>
      </trkpt>
      <trkpt lat="45.73422" lon="2.93257">
        <ele>984</ele>
        <time>2013-06-16T10:10:34Z</time>
      </trkpt>
      <trkpt lat="45.73384" lon="2.93316">
        <ele>984</ele>
        <time>2013-06-16T10:10:47Z</time>
      </trkpt>
      <trkpt lat="45.73332" lon="2.93372">
        <ele>984</ele>
        <time>2013-06-16T10:11:02Z</time>
      </trkpt>
      <trkpt lat="45.72981" lon="2.93585">
        <ele>996.20001220703</ele>
        <time>2013-06-16T10:13:01Z</time>
      </trkpt>
      <trkpt lat="45.72913" lon="2.93623">
        <ele>1002.799987793</ele>
        <time>2013-06-16T10:13:28Z</time>
      </trkpt>
      <trkpt lat="45.72864" lon="2.93652">
        <ele>1004.799987793</ele>
        <time>2013-06-16T10:13:47Z</time>
      </trkpt>
      <trkpt lat="45.72632" lon="2.93906">
        <ele>1017.200012207</ele>
        <time>2013-06-16T10:15:22Z</time>
      </trkpt>
      <trkpt lat="45.72597" lon="2.93935">
        <ele>1017.200012207</ele>
        <time>2013-06-16T10:15:35Z</time>
      </trkpt>
      <trkpt lat="45.72551" lon="2.94001">
        <ele>1019.200012207</ele>
        <time>2013-06-16T10:15:55Z</time>
      </trkpt>
      <trkpt lat="45.72535" lon="2.94025">
        <ele>1020</ele>
        <time>2013-06-16T10:16:01Z</time>
      </trkpt>
      <trkpt lat="45.72474" lon="2.94138">
        <ele>1023.799987793</ele>
        <time>2013-06-16T10:16:30Z</time>
      </trkpt>
      <trkpt lat="45.7238" lon="2.94215">
        <ele>1029.1999511719</ele>
        <time>2013-06-16T10:17:05Z</time>
      </trkpt>
      <trkpt lat="45.72358" lon="2.94229">
        <ele>1029.5999755859</ele>
        <time>2013-06-16T10:17:11Z</time>
      </trkpt>
      <trkpt lat="45.72308" lon="2.94335">
        <ele>1033.8000488281</ele>
        <time>2013-06-16T10:17:38Z</time>
      </trkpt>
      <trkpt lat="45.72272" lon="2.94445">
        <ele>1037.5999755859</ele>
        <time>2013-06-16T10:18:04Z</time>
      </trkpt>
      <trkpt lat="45.7226" lon="2.94494">
        <ele>1040.1999511719</ele>
        <time>2013-06-16T10:18:17Z</time>
      </trkpt>
      <trkpt lat="45.72178" lon="2.94777">
        <ele>1050.4000244141</ele>
        <time>2013-06-16T10:19:28Z</time>
      </trkpt>
      <trkpt lat="45.72163" lon="2.94822">
        <ele>1050.4000244141</ele>
        <time>2013-06-16T10:19:41Z</time>
      </trkpt>
      <trkpt lat="45.72127" lon="2.94879">
        <ele>1054.8000488281</ele>
        <time>2013-06-16T10:19:59Z</time>
      </trkpt>
      <trkpt lat="45.7211" lon="2.94901">
        <ele>1054.8000488281</ele>
        <time>2013-06-16T10:20:06Z</time>
      </trkpt>
      <trkpt lat="45.72114" lon="2.94957">
        <ele>1059</ele>
        <time>2013-06-16T10:20:23Z</time>
      </trkpt>
      <trkpt lat="45.72141" lon="2.95015">
        <ele>1059.4000244141</ele>
        <time>2013-06-16T10:20:37Z</time>
      </trkpt>
      <trkpt lat="45.72188" lon="2.95117">
        <ele>1063</ele>
        <time>2013-06-16T10:21:02Z</time>
      </trkpt>
      <trkpt lat="45.72215" lon="2.95198">
        <ele>1063</ele>
        <time>2013-06-16T10:33:20Z</time>
      </trkpt>
      <trkpt lat="45.72188" lon="2.95214">
        <ele>1063</ele>
        <time>2013-06-16T10:33:31Z</time>
      </trkpt>
      <trkpt lat="45.72172" lon="2.95201">
        <ele>1063</ele>
        <time>2013-06-16T10:33:35Z</time>
      </trkpt>
      <trkpt lat="45.72114" lon="2.95161">
        <ele>1061</ele>
        <time>2013-06-16T10:33:48Z</time>
      </trkpt>
      <trkpt lat="45.72109" lon="2.95161">
        <ele>1060.1999511719</ele>
        <time>2013-06-16T10:33:50Z</time>
      </trkpt>
      <trkpt lat="45.72069" lon="2.95137">
        <ele>1054</ele>
        <time>2013-06-16T10:34:03Z</time>
      </trkpt>
      <trkpt lat="45.72052" lon="2.95124">
        <ele>1053.1999511719</ele>
        <time>2013-06-16T10:34:05Z</time>
      </trkpt>
      <trkpt lat="45.7193" lon="2.95057">
        <ele>1046.5999755859</ele>
        <time>2013-06-16T10:34:20Z</time>
      </trkpt>
      <trkpt lat="45.71786" lon="2.94938">
        <ele>1042.5999755859</ele>
        <time>2013-06-16T10:34:46Z</time>
      </trkpt>
      <trkpt lat="45.7166" lon="2.94868">
        <ele>1042.5999755859</ele>
        <time>2013-06-16T10:35:13Z</time>
      </trkpt>
      <trkpt lat="45.71646" lon="2.94861">
        <ele>1042</ele>
        <time>2013-06-16T10:35:15Z</time>
      </trkpt>
      <trkpt lat="45.71438" lon="2.94796">
        <ele>1027.1999511719</ele>
        <time>2013-06-16T10:35:42Z</time>
      </trkpt>
      <trkpt lat="45.71367" lon="2.94725">
        <ele>1020.799987793</ele>
        <time>2013-06-16T10:35:54Z</time>
      </trkpt>
      <trkpt lat="45.71358" lon="2.94722">
        <ele>1020</ele>
        <time>2013-06-16T10:35:56Z</time>
      </trkpt>
      <trkpt lat="45.71355" lon="2.94722">
        <ele>1019.5999755859</ele>
        <time>2013-06-16T10:35:59Z</time>
      </trkpt>
      <trkpt lat="45.71386" lon="2.94846">
        <ele>1017.4000244141</ele>
        <time>2013-06-16T10:37:07Z</time>
      </trkpt>
      <trkpt lat="45.71394" lon="2.94969">
        <ele>1019.5999755859</ele>
        <time>2013-06-16T10:37:37Z</time>
      </trkpt>
      <trkpt lat="45.71369" lon="2.95053">
        <ele>1021.799987793</ele>
        <time>2013-06-16T10:38:00Z</time>
      </trkpt>
      <trkpt lat="45.71369" lon="2.95062">
        <ele>1021.799987793</ele>
        <time>2013-06-16T10:38:02Z</time>
      </trkpt>
      <trkpt lat="45.71378" lon="2.95109">
        <ele>1022.5999755859</ele>
        <time>2013-06-16T10:38:13Z</time>
      </trkpt>
      <trkpt lat="45.71356" lon="2.95133">
        <ele>1025.8000488281</ele>
        <time>2013-06-16T10:38:28Z</time>
      </trkpt>
      <trkpt lat="45.71344" lon="2.95173">
        <ele>1028</ele>
        <time>2013-06-16T10:38:45Z</time>
      </trkpt>
      <trkpt lat="45.71341" lon="2.95196">
        <ele>1028.4000244141</ele>
        <time>2013-06-16T10:38:54Z</time>
      </trkpt>
      <trkpt lat="45.71333" lon="2.95505">
        <ele>1082.5999755859</ele>
        <time>2013-06-16T10:50:04Z</time>
      </trkpt>
      <trkpt lat="45.71333" lon="2.95546">
        <ele>1082.5999755859</ele>
        <time>2013-06-16T10:50:14Z</time>
      </trkpt>
      <trkpt lat="45.71338" lon="2.95691">
        <ele>1064.8000488281</ele>
        <time>2013-06-16T10:50:34Z</time>
      </trkpt>
      <trkpt lat="45.71291" lon="2.9614">
        <ele>1026.5999755859</ele>
        <time>2013-06-16T10:51:27Z</time>
      </trkpt>
      <trkpt lat="45.7132" lon="2.96296">
        <ele>1015.5999755859</ele>
        <time>2013-06-16T10:51:45Z</time>
      </trkpt>
      <trkpt lat="45.71345" lon="2.96356">
        <ele>1008</ele>
        <time>2013-06-16T10:51:56Z</time>
      </trkpt>
      <trkpt lat="45.71351" lon="2.96388">
        <ele>1003.4000244141</ele>
        <time>2013-06-16T10:52:02Z</time>
      </trkpt>
      <trkpt lat="45.71359" lon="2.96403">
        <ele>1001</ele>
        <time>2013-06-16T10:52:07Z</time>
      </trkpt>
      <trkpt lat="45.71366" lon="2.96417">
        <ele>999.79998779297</ele>
        <time>2013-06-16T10:52:13Z</time>
      </trkpt>
      <trkpt lat="45.71388" lon="2.9651">
        <ele>990.20001220703</ele>
        <time>2013-06-16T10:52:48Z</time>
      </trkpt>
      <trkpt lat="45.71396" lon="2.9654">
        <ele>984.79998779297</ele>
        <time>2013-06-16T10:52:51Z</time>
      </trkpt>
      <trkpt lat="45.71426" lon="2.96619">
        <ele>971.40002441406</ele>
        <time>2013-06-16T10:53:00Z</time>
      </trkpt>
      <trkpt lat="45.71413" lon="2.9668">
        <ele>963.20001220703</ele>
        <time>2013-06-16T10:53:07Z</time>
      </trkpt>
      <trkpt lat="45.71406" lon="2.96714">
        <ele>959.40002441406</ele>
        <time>2013-06-16T10:53:10Z</time>
      </trkpt>
      <trkpt lat="45.71399" lon="2.96796">
        <ele>947.79998779297</ele>
        <time>2013-06-16T10:53:18Z</time>
      </trkpt>
      <trkpt lat="45.71412" lon="2.96864">
        <ele>940</ele>
        <time>2013-06-16T10:53:24Z</time>
      </trkpt>
      <trkpt lat="45.71424" lon="2.96897">
        <ele>936.59997558594</ele>
        <time>2013-06-16T10:53:27Z</time>
      </trkpt>
      <trkpt lat="45.71483" lon="2.96968">
        <ele>927</ele>
        <time>2013-06-16T10:53:42Z</time>
      </trkpt>
      <trkpt lat="45.71522" lon="2.97001">
        <ele>925.79998779297</ele>
        <time>2013-06-16T10:53:47Z</time>
      </trkpt>
      <trkpt lat="45.71574" lon="2.97026">
        <ele>925.79998779297</ele>
        <time>2013-06-16T10:53:59Z</time>
      </trkpt>
      <trkpt lat="45.71573" lon="2.97102">
        <ele>925.79998779297</ele>
        <time>2013-06-16T10:55:51Z</time>
      </trkpt>
      <trkpt lat="45.7154" lon="2.97123">
        <ele>928.40002441406</ele>
        <time>2013-06-16T10:56:07Z</time>
      </trkpt>
      <trkpt lat="45.71531" lon="2.97116">
        <ele>930.20001220703</ele>
        <time>2013-06-16T10:56:11Z</time>
      </trkpt>
      <trkpt lat="45.71517" lon="2.97109">
        <ele>931</ele>
        <time>2013-06-16T10:56:17Z</time>
      </trkpt>
      <trkpt lat="45.71505" lon="2.9711">
        <ele>932.20001220703</ele>
        <time>2013-06-16T10:56:20Z</time>
      </trkpt>
      <trkpt lat="45.71428" lon="2.9714">
        <ele>936.40002441406</ele>
        <time>2013-06-16T10:56:50Z</time>
      </trkpt>
      <trkpt lat="45.71351" lon="2.97118">
        <ele>943</ele>
        <time>2013-06-16T10:57:23Z</time>
      </trkpt>
      <trkpt lat="45.71274" lon="2.97149">
        <ele>943</ele>
        <time>2013-06-16T10:57:43Z</time>
      </trkpt>
      <trkpt lat="45.71198" lon="2.97212">
        <ele>943</ele>
        <time>2013-06-16T10:57:59Z</time>
      </trkpt>
      <trkpt lat="45.71128" lon="2.97241">
        <ele>943</ele>
        <time>2013-06-16T10:58:14Z</time>
      </trkpt>
      <trkpt lat="45.7108" lon="2.97249">
        <ele>943</ele>
        <time>2013-06-16T10:58:25Z</time>
      </trkpt>
      <trkpt lat="45.71074" lon="2.97249">
        <ele>942.59997558594</ele>
        <time>2013-06-16T10:58:26Z</time>
      </trkpt>
      <trkpt lat="45.71061" lon="2.9725">
        <ele>941.59997558594</ele>
        <time>2013-06-16T10:58:28Z</time>
      </trkpt>
      <trkpt lat="45.71047" lon="2.97249">
        <ele>940.79998779297</ele>
        <time>2013-06-16T10:58:30Z</time>
      </trkpt>
      <trkpt lat="45.70894" lon="2.97206">
        <ele>943</ele>
        <time>2013-06-16T10:58:58Z</time>
      </trkpt>
      <trkpt lat="45.70778" lon="2.97105">
        <ele>943</ele>
        <time>2013-06-16T10:59:24Z</time>
      </trkpt>
      <trkpt lat="45.70763" lon="2.97095">
        <ele>943</ele>
        <time>2013-06-16T10:59:34Z</time>
      </trkpt>
      <trkpt lat="45.70745" lon="2.97073">
        <ele>943</ele>
        <time>2013-06-16T10:59:51Z</time>
      </trkpt>
      <trkpt lat="45.70619" lon="2.97068">
        <ele>945.20001220703</ele>
        <time>2013-06-16T11:00:33Z</time>
      </trkpt>
      <trkpt lat="45.70474" lon="2.97144">
        <ele>951.40002441406</ele>
        <time>2013-06-16T11:02:20Z</time>
      </trkpt>
      <trkpt lat="45.70397" lon="2.97247">
        <ele>948.59997558594</ele>
        <time>2013-06-16T11:02:40Z</time>
      </trkpt>
      <trkpt lat="45.7039" lon="2.97249">
        <ele>947.20001220703</ele>
        <time>2013-06-16T11:02:42Z</time>
      </trkpt>
      <trkpt lat="45.70327" lon="2.97213">
        <ele>947.79998779297</ele>
        <time>2013-06-16T11:03:04Z</time>
      </trkpt>
      <trkpt lat="45.70268" lon="2.97139">
        <ele>955.59997558594</ele>
        <time>2013-06-16T11:03:34Z</time>
      </trkpt>
      <trkpt lat="45.70162" lon="2.97044">
        <ele>962</ele>
        <time>2013-06-16T11:04:20Z</time>
      </trkpt>
      <trkpt lat="45.70128" lon="2.97008">
        <ele>962</ele>
        <time>2013-06-16T11:04:31Z</time>
      </trkpt>
      <trkpt lat="45.70094" lon="2.96968">
        <ele>961.59997558594</ele>
        <time>2013-06-16T11:04:39Z</time>
      </trkpt>
      <trkpt lat="45.7008" lon="2.96947">
        <ele>959.20001220703</ele>
        <time>2013-06-16T11:04:43Z</time>
      </trkpt>
      <trkpt lat="45.69998" lon="2.9708">
        <ele>957.59997558594</ele>
        <time>2013-06-16T11:05:25Z</time>
      </trkpt>
      <trkpt lat="45.6995" lon="2.97255">
        <ele>957.59997558594</ele>
        <time>2013-06-16T11:05:50Z</time>
      </trkpt>
      <trkpt lat="45.69935" lon="2.97303">
        <ele>956.59997558594</ele>
        <time>2013-06-16T11:05:55Z</time>
      </trkpt>
      <trkpt lat="45.69877" lon="2.97454">
        <ele>946.20001220703</ele>
        <time>2013-06-16T11:06:10Z</time>
      </trkpt>
      <trkpt lat="45.69803" lon="2.97671">
        <ele>936</ele>
        <time>2013-06-16T11:06:30Z</time>
      </trkpt>
      <trkpt lat="45.69775" lon="2.97802">
        <ele>932.59997558594</ele>
        <time>2013-06-16T11:06:42Z</time>
      </trkpt>
      <trkpt lat="45.69748" lon="2.97877">
        <ele>929.59997558594</ele>
        <time>2013-06-16T11:06:49Z</time>
      </trkpt>
      <trkpt lat="45.69723" lon="2.9794">
        <ele>928.40002441406</ele>
        <time>2013-06-16T11:06:55Z</time>
      </trkpt>
      <trkpt lat="45.69659" lon="2.98349">
        <ele>926.20001220703</ele>
        <time>2013-06-16T11:07:53Z</time>
      </trkpt>
      <trkpt lat="45.69624" lon="2.9855">
        <ele>916.40002441406</ele>
        <time>2013-06-16T11:08:11Z</time>
      </trkpt>
      <trkpt lat="45.69552" lon="2.98875">
        <ele>912</ele>
        <time>2013-06-16T11:08:42Z</time>
      </trkpt>
      <trkpt lat="45.69514" lon="2.98963">
        <ele>910.20001220703</ele>
        <time>2013-06-16T11:08:51Z</time>
      </trkpt>
      <trkpt lat="45.6956" lon="2.99129">
        <ele>910.20001220703</ele>
        <time>2013-06-16T11:09:13Z</time>
      </trkpt>
      <trkpt lat="45.69505" lon="2.99331">
        <ele>903.20001220703</ele>
        <time>2013-06-16T11:09:31Z</time>
      </trkpt>
      <trkpt lat="45.69466" lon="2.99401">
        <ele>900.20001220703</ele>
        <time>2013-06-16T11:09:38Z</time>
      </trkpt>
      <trkpt lat="45.69423" lon="2.99435">
        <ele>896.59997558594</ele>
        <time>2013-06-16T11:09:44Z</time>
      </trkpt>
      <trkpt lat="45.6941" lon="2.99468">
        <ele>896.20001220703</ele>
        <time>2013-06-16T11:09:48Z</time>
      </trkpt>
      <trkpt lat="45.69411" lon="2.99506">
        <ele>894.40002441406</ele>
        <time>2013-06-16T11:09:52Z</time>
      </trkpt>
      <trkpt lat="45.69411" lon="2.99605">
        <ele>894.40002441406</ele>
        <time>2013-06-16T11:10:03Z</time>
      </trkpt>
    </trkseg>
  </trk>
</gpx>